sensor_id;sensor_type;location;lat;lon;timestamp;P1;durP1;ratioP1;P2;durP2;ratioP2
12962;SDS011;6546;49.882;8.666;2022-12-07T00:01:18;15.70;;;10.27;;
12962;SDS011;6546;49.882;8.666;2022-12-07T00:03:49;14.37;;;10.37;;
12962;SDS011;6546;49.882;8.666;2022-12-07T00:06:17;13.77;;;10.57;;
12962;SDS011;6546;49.882;8.666;2022-12-07T00:08:45;13.83;;;10.50;;
12962;SDS011;6546;49.882;8.666;2022-12-07T00:11:13;13.70;;;9.90;;
12962;SDS011;6546;49.882;8.666;2022-12-07T00:13:41;14.17;;;10.60;;
12962;SDS011;6546;49.882;8.666;2022-12-07T00:16:10;13.17;;;10.67;;
12962;SDS011;6546;49.882;8.666;2022-12-07T00:18:39;14.90;;;10.47;;
12962;SDS011;6546;49.882;8.666;2022-12-07T00:21:07;15.97;;;10.60;;
12962;SDS011;6546;49.882;8.666;2022-12-07T00:23:36;15.03;;;10.47;;
12962;SDS011;6546;49.882;8.666;2022-12-07T00:26:03;12.90;;;9.57;;
12962;SDS011;6546;49.882;8.666;2022-12-07T00:28:31;15.57;;;11.40;;
12962;SDS011;6546;49.882;8.666;2022-12-07T00:30:59;14.93;;;10.43;;
12962;SDS011;6546;49.882;8.666;2022-12-07T00:33:29;14.17;;;10.20;;
12962;SDS011;6546;49.882;8.666;2022-12-07T00:35:56;13.33;;;9.87;;
12962;SDS011;6546;49.882;8.666;2022-12-07T00:38:22;13.10;;;9.37;;
12962;SDS011;6546;49.882;8.666;2022-12-07T00:40:53;13.63;;;10.17;;
12962;SDS011;6546;49.882;8.666;2022-12-07T00:43:20;14.03;;;9.23;;
12962;SDS011;6546;49.882;8.666;2022-12-07T00:45:47;15.73;;;10.07;;
12962;SDS011;6546;49.882;8.666;2022-12-07T00:48:14;12.63;;;9.93;;
12962;SDS011;6546;49.882;8.666;2022-12-07T00:50:42;14.20;;;9.90;;
12962;SDS011;6546;49.882;8.666;2022-12-07T00:53:08;13.30;;;9.37;;
12962;SDS011;6546;49.882;8.666;2022-12-07T00:55:35;11.53;;;9.50;;
12962;SDS011;6546;49.882;8.666;2022-12-07T00:58:02;13.00;;;10.10;;
12962;SDS011;6546;49.882;8.666;2022-12-07T01:00:29;13.57;;;9.37;;
12962;SDS011;6546;49.882;8.666;2022-12-07T01:02:56;14.23;;;10.50;;
12962;SDS011;6546;49.882;8.666;2022-12-07T01:05:23;13.53;;;9.90;;
12962;SDS011;6546;49.882;8.666;2022-12-07T01:07:50;17.30;;;10.30;;
12962;SDS011;6546;49.882;8.666;2022-12-07T01:10:17;14.93;;;10.03;;
12962;SDS011;6546;49.882;8.666;2022-12-07T01:12:44;13.50;;;10.03;;
12962;SDS011;6546;49.882;8.666;2022-12-07T01:15:11;14.00;;;9.47;;
12962;SDS011;6546;49.882;8.666;2022-12-07T01:17:38;12.07;;;9.57;;
12962;SDS011;6546;49.882;8.666;2022-12-07T01:20:05;12.13;;;9.60;;
12962;SDS011;6546;49.882;8.666;2022-12-07T01:22:35;12.93;;;9.63;;
12962;SDS011;6546;49.882;8.666;2022-12-07T01:25:04;12.33;;;9.30;;
12962;SDS011;6546;49.882;8.666;2022-12-07T01:27:32;14.50;;;10.00;;
12962;SDS011;6546;49.882;8.666;2022-12-07T01:29:59;13.47;;;9.83;;
12962;SDS011;6546;49.882;8.666;2022-12-07T01:32:26;13.53;;;9.37;;
12962;SDS011;6546;49.882;8.666;2022-12-07T01:34:53;13.17;;;9.30;;
12962;SDS011;6546;49.882;8.666;2022-12-07T01:37:19;13.13;;;9.37;;
12962;SDS011;6546;49.882;8.666;2022-12-07T01:39:47;13.43;;;10.00;;
12962;SDS011;6546;49.882;8.666;2022-12-07T01:42:17;12.77;;;9.40;;
12962;SDS011;6546;49.882;8.666;2022-12-07T01:48:02;12.83;;;9.17;;
12962;SDS011;6546;49.882;8.666;2022-12-07T01:50:31;10.67;;;9.03;;
12962;SDS011;6546;49.882;8.666;2022-12-07T01:52:58;12.87;;;9.67;;
12962;SDS011;6546;49.882;8.666;2022-12-07T01:55:28;13.00;;;8.83;;
12962;SDS011;6546;49.882;8.666;2022-12-07T01:57:57;15.27;;;10.40;;
12962;SDS011;6546;49.882;8.666;2022-12-07T02:00:24;13.27;;;9.27;;
12962;SDS011;6546;49.882;8.666;2022-12-07T02:02:51;15.33;;;10.17;;
12962;SDS011;6546;49.882;8.666;2022-12-07T02:05:21;13.13;;;9.10;;
12962;SDS011;6546;49.882;8.666;2022-12-07T02:07:49;11.97;;;9.40;;
12962;SDS011;6546;49.882;8.666;2022-12-07T02:10:20;13.93;;;9.83;;
12962;SDS011;6546;49.882;8.666;2022-12-07T02:12:49;13.90;;;9.90;;
12962;SDS011;6546;49.882;8.666;2022-12-07T02:15:21;12.10;;;8.87;;
12962;SDS011;6546;49.882;8.666;2022-12-07T02:17:59;13.37;;;10.17;;
12962;SDS011;6546;49.882;8.666;2022-12-07T02:20:33;12.47;;;9.23;;
12962;SDS011;6546;49.882;8.666;2022-12-07T02:26:09;12.87;;;9.03;;
12962;SDS011;6546;49.882;8.666;2022-12-07T02:29:07;14.37;;;9.37;;
12962;SDS011;6546;49.882;8.666;2022-12-07T02:31:42;13.83;;;9.37;;
12962;SDS011;6546;49.882;8.666;2022-12-07T02:34:15;14.73;;;10.10;;
12962;SDS011;6546;49.882;8.666;2022-12-07T02:36:51;13.23;;;9.10;;
12962;SDS011;6546;49.882;8.666;2022-12-07T02:39:23;11.97;;;9.17;;
12962;SDS011;6546;49.882;8.666;2022-12-07T02:41:56;14.30;;;9.20;;
12962;SDS011;6546;49.882;8.666;2022-12-07T02:44:29;13.10;;;9.53;;
12962;SDS011;6546;49.882;8.666;2022-12-07T02:47:00;11.10;;;8.83;;
12962;SDS011;6546;49.882;8.666;2022-12-07T02:49:30;12.60;;;9.23;;
12962;SDS011;6546;49.882;8.666;2022-12-07T02:51:58;12.60;;;9.50;;
12962;SDS011;6546;49.882;8.666;2022-12-07T02:54:28;14.03;;;9.87;;
12962;SDS011;6546;49.882;8.666;2022-12-07T02:56:56;11.43;;;8.93;;
12962;SDS011;6546;49.882;8.666;2022-12-07T02:59:36;12.40;;;10.10;;
12962;SDS011;6546;49.882;8.666;2022-12-07T03:02:17;14.50;;;9.83;;
12962;SDS011;6546;49.882;8.666;2022-12-07T03:04:52;14.37;;;8.67;;
12962;SDS011;6546;49.882;8.666;2022-12-07T03:07:29;13.73;;;9.67;;
12962;SDS011;6546;49.882;8.666;2022-12-07T03:10:07;13.30;;;9.00;;
12962;SDS011;6546;49.882;8.666;2022-12-07T03:12:43;12.97;;;9.10;;
12962;SDS011;6546;49.882;8.666;2022-12-07T03:15:18;12.77;;;9.30;;
12962;SDS011;6546;49.882;8.666;2022-12-07T03:17:53;13.20;;;9.53;;
12962;SDS011;6546;49.882;8.666;2022-12-07T03:20:24;12.87;;;9.30;;
12962;SDS011;6546;49.882;8.666;2022-12-07T03:22:52;12.83;;;9.47;;
12962;SDS011;6546;49.882;8.666;2022-12-07T03:25:20;13.70;;;9.50;;
12962;SDS011;6546;49.882;8.666;2022-12-07T03:27:49;13.37;;;9.87;;
12962;SDS011;6546;49.882;8.666;2022-12-07T03:30:24;11.20;;;9.37;;
12962;SDS011;6546;49.882;8.666;2022-12-07T03:32:56;11.27;;;8.47;;
12962;SDS011;6546;49.882;8.666;2022-12-07T03:35:31;11.63;;;8.23;;
12962;SDS011;6546;49.882;8.666;2022-12-07T03:38:02;11.27;;;8.77;;
12962;SDS011;6546;49.882;8.666;2022-12-07T03:40:40;12.00;;;8.70;;
12962;SDS011;6546;49.882;8.666;2022-12-07T03:43:11;12.27;;;9.23;;
12962;SDS011;6546;49.882;8.666;2022-12-07T03:45:41;12.37;;;8.67;;
12962;SDS011;6546;49.882;8.666;2022-12-07T03:48:14;12.83;;;8.67;;
12962;SDS011;6546;49.882;8.666;2022-12-07T03:50:52;12.57;;;9.10;;
12962;SDS011;6546;49.882;8.666;2022-12-07T03:53:28;13.17;;;8.07;;
12962;SDS011;6546;49.882;8.666;2022-12-07T03:56:00;13.30;;;9.50;;
12962;SDS011;6546;49.882;8.666;2022-12-07T03:58:28;11.17;;;8.43;;
12962;SDS011;6546;49.882;8.666;2022-12-07T04:00:58;10.57;;;8.37;;
12962;SDS011;6546;49.882;8.666;2022-12-07T04:03:26;10.63;;;8.37;;
12962;SDS011;6546;49.882;8.666;2022-12-07T04:05:52;14.27;;;8.93;;
12962;SDS011;6546;49.882;8.666;2022-12-07T04:08:20;12.50;;;9.23;;
12962;SDS011;6546;49.882;8.666;2022-12-07T04:10:47;13.97;;;9.20;;
12962;SDS011;6546;49.882;8.666;2022-12-07T04:13:14;11.17;;;8.47;;
12962;SDS011;6546;49.882;8.666;2022-12-07T04:15:41;12.27;;;9.07;;
12962;SDS011;6546;49.882;8.666;2022-12-07T04:18:09;11.00;;;8.67;;
12962;SDS011;6546;49.882;8.666;2022-12-07T04:20:36;11.00;;;8.43;;
12962;SDS011;6546;49.882;8.666;2022-12-07T04:23:04;11.73;;;8.40;;
12962;SDS011;6546;49.882;8.666;2022-12-07T04:25:31;12.13;;;8.77;;
12962;SDS011;6546;49.882;8.666;2022-12-07T04:27:58;12.10;;;8.57;;
12962;SDS011;6546;49.882;8.666;2022-12-07T04:30:25;11.93;;;8.20;;
12962;SDS011;6546;49.882;8.666;2022-12-07T04:32:52;10.77;;;8.30;;
12962;SDS011;6546;49.882;8.666;2022-12-07T04:35:20;12.37;;;8.47;;
12962;SDS011;6546;49.882;8.666;2022-12-07T04:37:47;11.23;;;7.93;;
12962;SDS011;6546;49.882;8.666;2022-12-07T04:40:15;11.30;;;7.40;;
12962;SDS011;6546;49.882;8.666;2022-12-07T04:42:41;11.53;;;8.13;;
12962;SDS011;6546;49.882;8.666;2022-12-07T04:45:09;13.07;;;8.23;;
12962;SDS011;6546;49.882;8.666;2022-12-07T04:47:36;11.03;;;8.20;;
12962;SDS011;6546;49.882;8.666;2022-12-07T04:50:03;11.47;;;8.97;;
12962;SDS011;6546;49.882;8.666;2022-12-07T04:52:33;12.40;;;9.03;;
12962;SDS011;6546;49.882;8.666;2022-12-07T04:55:00;12.27;;;8.10;;
12962;SDS011;6546;49.882;8.666;2022-12-07T04:57:28;12.73;;;8.73;;
12962;SDS011;6546;49.882;8.666;2022-12-07T04:59:55;13.53;;;9.57;;
12962;SDS011;6546;49.882;8.666;2022-12-07T05:02:22;12.97;;;8.73;;
12962;SDS011;6546;49.882;8.666;2022-12-07T05:04:49;11.43;;;8.27;;
12962;SDS011;6546;49.882;8.666;2022-12-07T05:07:16;12.63;;;8.77;;
12962;SDS011;6546;49.882;8.666;2022-12-07T05:09:44;14.07;;;9.03;;
12962;SDS011;6546;49.882;8.666;2022-12-07T05:12:11;11.33;;;8.17;;
12962;SDS011;6546;49.882;8.666;2022-12-07T05:14:37;11.63;;;8.90;;
12962;SDS011;6546;49.882;8.666;2022-12-07T05:17:04;12.17;;;8.80;;
12962;SDS011;6546;49.882;8.666;2022-12-07T05:19:31;13.20;;;9.03;;
12962;SDS011;6546;49.882;8.666;2022-12-07T05:21:59;12.47;;;8.53;;
12962;SDS011;6546;49.882;8.666;2022-12-07T05:24:26;11.67;;;8.77;;
12962;SDS011;6546;49.882;8.666;2022-12-07T05:26:55;14.27;;;9.90;;
12962;SDS011;6546;49.882;8.666;2022-12-07T05:29:22;11.07;;;8.93;;
12962;SDS011;6546;49.882;8.666;2022-12-07T05:31:48;13.10;;;9.07;;
12962;SDS011;6546;49.882;8.666;2022-12-07T05:34:15;12.83;;;9.50;;
12962;SDS011;6546;49.882;8.666;2022-12-07T05:36:42;11.37;;;8.37;;
12962;SDS011;6546;49.882;8.666;2022-12-07T05:39:09;12.50;;;8.80;;
12962;SDS011;6546;49.882;8.666;2022-12-07T05:41:37;12.80;;;8.97;;
12962;SDS011;6546;49.882;8.666;2022-12-07T05:44:23;12.43;;;8.97;;
12962;SDS011;6546;49.882;8.666;2022-12-07T05:46:50;12.90;;;8.87;;
12962;SDS011;6546;49.882;8.666;2022-12-07T05:49:17;13.70;;;9.30;;
12962;SDS011;6546;49.882;8.666;2022-12-07T05:51:44;12.60;;;8.97;;
12962;SDS011;6546;49.882;8.666;2022-12-07T05:54:11;11.67;;;8.83;;
12962;SDS011;6546;49.882;8.666;2022-12-07T05:56:38;10.70;;;8.20;;
12962;SDS011;6546;49.882;8.666;2022-12-07T05:59:05;19.77;;;9.43;;
12962;SDS011;6546;49.882;8.666;2022-12-07T06:01:52;11.50;;;8.83;;
12962;SDS011;6546;49.882;8.666;2022-12-07T06:04:21;13.50;;;9.53;;
12962;SDS011;6546;49.882;8.666;2022-12-07T06:06:48;12.50;;;8.43;;
12962;SDS011;6546;49.882;8.666;2022-12-07T06:09:15;12.87;;;9.37;;
12962;SDS011;6546;49.882;8.666;2022-12-07T06:11:44;12.50;;;8.83;;
12962;SDS011;6546;49.882;8.666;2022-12-07T06:14:29;12.10;;;8.93;;
12962;SDS011;6546;49.882;8.666;2022-12-07T06:16:58;13.73;;;8.57;;
12962;SDS011;6546;49.882;8.666;2022-12-07T06:19:25;12.90;;;8.90;;
12962;SDS011;6546;49.882;8.666;2022-12-07T06:21:53;11.97;;;8.53;;
12962;SDS011;6546;49.882;8.666;2022-12-07T06:24:20;12.30;;;8.70;;
12962;SDS011;6546;49.882;8.666;2022-12-07T06:26:48;14.57;;;9.50;;
12962;SDS011;6546;49.882;8.666;2022-12-07T06:29:16;13.27;;;9.70;;
12962;SDS011;6546;49.882;8.666;2022-12-07T06:31:43;12.47;;;8.97;;
12962;SDS011;6546;49.882;8.666;2022-12-07T06:34:14;14.50;;;9.60;;
12962;SDS011;6546;49.882;8.666;2022-12-07T06:36:44;14.50;;;9.50;;
12962;SDS011;6546;49.882;8.666;2022-12-07T06:39:16;13.20;;;8.97;;
12962;SDS011;6546;49.882;8.666;2022-12-07T06:41:44;12.97;;;9.60;;
12962;SDS011;6546;49.882;8.666;2022-12-07T06:44:11;13.27;;;8.97;;
12962;SDS011;6546;49.882;8.666;2022-12-07T06:46:40;11.77;;;8.90;;
12962;SDS011;6546;49.882;8.666;2022-12-07T06:49:07;15.20;;;9.17;;
12962;SDS011;6546;49.882;8.666;2022-12-07T06:51:36;14.57;;;9.20;;
12962;SDS011;6546;49.882;8.666;2022-12-07T06:54:06;11.70;;;8.77;;
12962;SDS011;6546;49.882;8.666;2022-12-07T06:56:33;11.77;;;9.40;;
12962;SDS011;6546;49.882;8.666;2022-12-07T06:59:00;11.63;;;8.50;;
12962;SDS011;6546;49.882;8.666;2022-12-07T07:01:28;11.90;;;8.53;;
12962;SDS011;6546;49.882;8.666;2022-12-07T07:03:55;13.23;;;8.57;;
12962;SDS011;6546;49.882;8.666;2022-12-07T07:06:24;12.77;;;9.20;;
12962;SDS011;6546;49.882;8.666;2022-12-07T07:08:54;12.43;;;9.30;;
12962;SDS011;6546;49.882;8.666;2022-12-07T07:11:22;11.07;;;8.67;;
12962;SDS011;6546;49.882;8.666;2022-12-07T07:13:49;14.00;;;8.67;;
12962;SDS011;6546;49.882;8.666;2022-12-07T07:16:16;11.87;;;8.97;;
12962;SDS011;6546;49.882;8.666;2022-12-07T07:18:43;13.30;;;9.60;;
12962;SDS011;6546;49.882;8.666;2022-12-07T07:21:10;13.67;;;9.87;;
12962;SDS011;6546;49.882;8.666;2022-12-07T07:23:37;15.40;;;9.40;;
12962;SDS011;6546;49.882;8.666;2022-12-07T07:26:05;13.47;;;10.30;;
12962;SDS011;6546;49.882;8.666;2022-12-07T07:28:33;14.40;;;9.70;;
12962;SDS011;6546;49.882;8.666;2022-12-07T07:31:00;12.27;;;9.47;;
12962;SDS011;6546;49.882;8.666;2022-12-07T07:33:27;11.73;;;9.10;;
12962;SDS011;6546;49.882;8.666;2022-12-07T07:35:53;15.20;;;9.93;;
12962;SDS011;6546;49.882;8.666;2022-12-07T07:38:21;12.40;;;9.50;;
12962;SDS011;6546;49.882;8.666;2022-12-07T07:40:48;12.37;;;9.30;;
12962;SDS011;6546;49.882;8.666;2022-12-07T07:43:16;13.23;;;9.67;;
12962;SDS011;6546;49.882;8.666;2022-12-07T07:45:43;12.13;;;9.30;;
12962;SDS011;6546;49.882;8.666;2022-12-07T07:48:11;12.57;;;9.87;;
12962;SDS011;6546;49.882;8.666;2022-12-07T07:50:38;13.13;;;9.73;;
12962;SDS011;6546;49.882;8.666;2022-12-07T07:53:05;13.53;;;9.10;;
12962;SDS011;6546;49.882;8.666;2022-12-07T07:55:33;12.43;;;8.90;;
12962;SDS011;6546;49.882;8.666;2022-12-07T07:58:00;13.03;;;9.40;;
12962;SDS011;6546;49.882;8.666;2022-12-07T08:00:29;13.73;;;9.37;;
12962;SDS011;6546;49.882;8.666;2022-12-07T08:02:56;12.33;;;9.03;;
12962;SDS011;6546;49.882;8.666;2022-12-07T08:05:24;13.50;;;9.87;;
12962;SDS011;6546;49.882;8.666;2022-12-07T08:07:51;13.80;;;9.27;;
12962;SDS011;6546;49.882;8.666;2022-12-07T08:10:18;12.63;;;9.20;;
12962;SDS011;6546;49.882;8.666;2022-12-07T08:12:44;13.27;;;9.37;;
12962;SDS011;6546;49.882;8.666;2022-12-07T08:15:30;14.10;;;10.07;;
12962;SDS011;6546;49.882;8.666;2022-12-07T08:17:58;14.73;;;9.87;;
12962;SDS011;6546;49.882;8.666;2022-12-07T08:20:25;14.20;;;10.17;;
12962;SDS011;6546;49.882;8.666;2022-12-07T08:22:53;13.90;;;10.53;;
12962;SDS011;6546;49.882;8.666;2022-12-07T08:25:19;16.30;;;10.10;;
12962;SDS011;6546;49.882;8.666;2022-12-07T08:27:47;14.90;;;9.30;;
12962;SDS011;6546;49.882;8.666;2022-12-07T08:30:14;13.13;;;9.40;;
12962;SDS011;6546;49.882;8.666;2022-12-07T08:32:45;15.40;;;10.43;;
12962;SDS011;6546;49.882;8.666;2022-12-07T08:35:13;13.50;;;10.07;;
12962;SDS011;6546;49.882;8.666;2022-12-07T08:37:40;12.43;;;9.70;;
12962;SDS011;6546;49.882;8.666;2022-12-07T08:40:08;13.87;;;10.03;;
12962;SDS011;6546;49.882;8.666;2022-12-07T08:42:40;13.80;;;10.10;;
12962;SDS011;6546;49.882;8.666;2022-12-07T08:45:08;13.60;;;10.13;;
12962;SDS011;6546;49.882;8.666;2022-12-07T08:47:37;15.27;;;10.40;;
12962;SDS011;6546;49.882;8.666;2022-12-07T08:50:09;15.60;;;10.47;;
12962;SDS011;6546;49.882;8.666;2022-12-07T08:52:38;14.30;;;9.60;;
12962;SDS011;6546;49.882;8.666;2022-12-07T08:55:07;12.13;;;9.47;;
12962;SDS011;6546;49.882;8.666;2022-12-07T08:57:36;12.67;;;9.97;;
12962;SDS011;6546;49.882;8.666;2022-12-07T09:00:05;14.43;;;10.27;;
12962;SDS011;6546;49.882;8.666;2022-12-07T09:02:34;13.57;;;10.33;;
12962;SDS011;6546;49.882;8.666;2022-12-07T09:05:00;14.73;;;10.40;;
12962;SDS011;6546;49.882;8.666;2022-12-07T09:07:29;16.00;;;9.90;;
12962;SDS011;6546;49.882;8.666;2022-12-07T09:09:59;14.10;;;10.03;;
12962;SDS011;6546;49.882;8.666;2022-12-07T09:12:26;16.00;;;11.23;;
12962;SDS011;6546;49.882;8.666;2022-12-07T09:14:52;14.00;;;10.40;;
12962;SDS011;6546;49.882;8.666;2022-12-07T09:17:19;15.53;;;10.20;;
12962;SDS011;6546;49.882;8.666;2022-12-07T09:19:46;14.90;;;10.90;;
12962;SDS011;6546;49.882;8.666;2022-12-07T09:22:14;13.40;;;9.87;;
12962;SDS011;6546;49.882;8.666;2022-12-07T09:24:42;13.87;;;10.40;;
12962;SDS011;6546;49.882;8.666;2022-12-07T09:27:10;15.63;;;10.73;;
12962;SDS011;6546;49.882;8.666;2022-12-07T09:29:38;12.03;;;9.87;;
12962;SDS011;6546;49.882;8.666;2022-12-07T09:32:05;14.00;;;9.87;;
12962;SDS011;6546;49.882;8.666;2022-12-07T09:34:33;14.20;;;10.20;;
12962;SDS011;6546;49.882;8.666;2022-12-07T09:37:00;16.93;;;10.57;;
12962;SDS011;6546;49.882;8.666;2022-12-07T09:39:29;14.20;;;10.47;;
12962;SDS011;6546;49.882;8.666;2022-12-07T09:41:57;16.07;;;9.90;;
12962;SDS011;6546;49.882;8.666;2022-12-07T09:44:26;13.23;;;10.70;;
12962;SDS011;6546;49.882;8.666;2022-12-07T09:46:54;13.57;;;10.67;;
12962;SDS011;6546;49.882;8.666;2022-12-07T09:49:22;13.77;;;10.33;;
12962;SDS011;6546;49.882;8.666;2022-12-07T09:51:59;14.60;;;10.50;;
12962;SDS011;6546;49.882;8.666;2022-12-07T09:54:28;14.00;;;10.17;;
12962;SDS011;6546;49.882;8.666;2022-12-07T09:56:59;14.47;;;9.87;;
12962;SDS011;6546;49.882;8.666;2022-12-07T09:59:26;11.50;;;9.37;;
12962;SDS011;6546;49.882;8.666;2022-12-07T10:01:53;14.13;;;10.30;;
12962;SDS011;6546;49.882;8.666;2022-12-07T10:04:22;13.67;;;9.90;;
12962;SDS011;6546;49.882;8.666;2022-12-07T10:06:50;13.70;;;10.57;;
12962;SDS011;6546;49.882;8.666;2022-12-07T10:09:18;16.30;;;10.10;;
12962;SDS011;6546;49.882;8.666;2022-12-07T10:12:02;13.33;;;10.33;;
12962;SDS011;6546;49.882;8.666;2022-12-07T10:14:32;13.87;;;10.53;;
12962;SDS011;6546;49.882;8.666;2022-12-07T10:17:00;12.73;;;10.53;;
12962;SDS011;6546;49.882;8.666;2022-12-07T10:19:28;15.63;;;10.03;;
12962;SDS011;6546;49.882;8.666;2022-12-07T10:22:07;14.43;;;9.67;;
12962;SDS011;6546;49.882;8.666;2022-12-07T10:24:36;12.53;;;9.90;;
12962;SDS011;6546;49.882;8.666;2022-12-07T10:27:09;12.57;;;10.33;;
12962;SDS011;6546;49.882;8.666;2022-12-07T10:29:48;16.03;;;10.50;;
12962;SDS011;6546;49.882;8.666;2022-12-07T10:32:27;16.27;;;11.13;;
12962;SDS011;6546;49.882;8.666;2022-12-07T10:35:15;15.63;;;10.77;;
12962;SDS011;6546;49.882;8.666;2022-12-07T10:37:46;15.00;;;10.53;;
12962;SDS011;6546;49.882;8.666;2022-12-07T10:40:24;15.47;;;10.80;;
12962;SDS011;6546;49.882;8.666;2022-12-07T10:43:02;14.50;;;10.90;;
12962;SDS011;6546;49.882;8.666;2022-12-07T10:45:32;15.83;;;10.87;;
12962;SDS011;6546;49.882;8.666;2022-12-07T10:47:59;18.20;;;11.37;;
12962;SDS011;6546;49.882;8.666;2022-12-07T10:50:41;16.93;;;11.33;;
12962;SDS011;6546;49.882;8.666;2022-12-07T10:53:23;13.23;;;10.20;;
12962;SDS011;6546;49.882;8.666;2022-12-07T10:58:59;14.63;;;9.83;;
12962;SDS011;6546;49.882;8.666;2022-12-07T11:01:45;15.50;;;10.60;;
12962;SDS011;6546;49.882;8.666;2022-12-07T11:04:24;13.83;;;9.83;;
12962;SDS011;6546;49.882;8.666;2022-12-07T11:07:00;14.40;;;10.13;;
12962;SDS011;6546;49.882;8.666;2022-12-07T11:09:38;13.57;;;9.73;;
12962;SDS011;6546;49.882;8.666;2022-12-07T11:12:22;12.03;;;9.13;;
12962;SDS011;6546;49.882;8.666;2022-12-07T11:15:03;10.90;;;9.03;;
12962;SDS011;6546;49.882;8.666;2022-12-07T11:17:42;12.63;;;8.27;;
12962;SDS011;6546;49.882;8.666;2022-12-07T11:20:21;12.00;;;8.20;;
12962;SDS011;6546;49.882;8.666;2022-12-07T11:22:58;12.57;;;9.07;;
12962;SDS011;6546;49.882;8.666;2022-12-07T11:25:34;10.30;;;7.47;;
12962;SDS011;6546;49.882;8.666;2022-12-07T11:28:13;9.97;;;7.53;;
12962;SDS011;6546;49.882;8.666;2022-12-07T11:30:54;9.93;;;6.87;;
12962;SDS011;6546;49.882;8.666;2022-12-07T11:33:32;10.90;;;6.17;;
12962;SDS011;6546;49.882;8.666;2022-12-07T11:36:08;8.93;;;6.10;;
12962;SDS011;6546;49.882;8.666;2022-12-07T11:38:54;8.93;;;5.80;;
12962;SDS011;6546;49.882;8.666;2022-12-07T11:41:26;8.20;;;6.17;;
12962;SDS011;6546;49.882;8.666;2022-12-07T11:43:56;10.13;;;5.77;;
12962;SDS011;6546;49.882;8.666;2022-12-07T11:46:34;9.37;;;6.47;;
12962;SDS011;6546;49.882;8.666;2022-12-07T11:49:10;9.27;;;6.23;;
12962;SDS011;6546;49.882;8.666;2022-12-07T11:51:42;10.10;;;5.47;;
12962;SDS011;6546;49.882;8.666;2022-12-07T11:54:14;6.97;;;5.03;;
12962;SDS011;6546;49.882;8.666;2022-12-07T11:56:44;7.30;;;5.57;;
12962;SDS011;6546;49.882;8.666;2022-12-07T11:59:17;9.23;;;5.40;;
12962;SDS011;6546;49.882;8.666;2022-12-07T12:01:53;9.63;;;6.00;;
12962;SDS011;6546;49.882;8.666;2022-12-07T12:04:26;10.03;;;5.07;;
12962;SDS011;6546;49.882;8.666;2022-12-07T12:06:57;8.13;;;5.47;;
12962;SDS011;6546;49.882;8.666;2022-12-07T12:09:26;7.77;;;4.90;;
12962;SDS011;6546;49.882;8.666;2022-12-07T12:12:04;7.47;;;4.77;;
12962;SDS011;6546;49.882;8.666;2022-12-07T12:14:46;6.03;;;3.97;;
12962;SDS011;6546;49.882;8.666;2022-12-07T12:17:26;9.23;;;4.97;;
12962;SDS011;6546;49.882;8.666;2022-12-07T12:20:05;8.37;;;4.67;;
12962;SDS011;6546;49.882;8.666;2022-12-07T12:22:43;6.27;;;4.73;;
12962;SDS011;6546;49.882;8.666;2022-12-07T12:25:16;5.20;;;3.90;;
12962;SDS011;6546;49.882;8.666;2022-12-07T12:27:48;7.37;;;4.90;;
12962;SDS011;6546;49.882;8.666;2022-12-07T12:30:24;7.83;;;4.40;;
12962;SDS011;6546;49.882;8.666;2022-12-07T12:33:04;7.80;;;3.70;;
12962;SDS011;6546;49.882;8.666;2022-12-07T12:35:40;4.50;;;3.40;;
12962;SDS011;6546;49.882;8.666;2022-12-07T12:38:21;6.67;;;4.03;;
12962;SDS011;6546;49.882;8.666;2022-12-07T12:40:53;8.10;;;3.57;;
12962;SDS011;6546;49.882;8.666;2022-12-07T12:43:39;7.40;;;4.20;;
12962;SDS011;6546;49.882;8.666;2022-12-07T12:46:36;7.90;;;3.73;;
12962;SDS011;6546;49.882;8.666;2022-12-07T12:49:17;4.97;;;3.50;;
12962;SDS011;6546;49.882;8.666;2022-12-07T12:52:00;5.93;;;4.03;;
12962;SDS011;6546;49.882;8.666;2022-12-07T12:54:57;6.23;;;3.80;;
12962;SDS011;6546;49.882;8.666;2022-12-07T12:57:27;8.73;;;3.90;;
12962;SDS011;6546;49.882;8.666;2022-12-07T12:59:57;5.57;;;3.50;;
12962;SDS011;6546;49.882;8.666;2022-12-07T13:02:25;5.37;;;3.70;;
12962;SDS011;6546;49.882;8.666;2022-12-07T13:04:56;8.23;;;4.30;;
12962;SDS011;6546;49.882;8.666;2022-12-07T13:10:35;8.87;;;4.50;;
12962;SDS011;6546;49.882;8.666;2022-12-07T13:13:21;7.07;;;5.17;;
12962;SDS011;6546;49.882;8.666;2022-12-07T13:18:57;9.13;;;6.33;;
12962;SDS011;6546;49.882;8.666;2022-12-07T13:21:44;9.80;;;5.70;;
12962;SDS011;6546;49.882;8.666;2022-12-07T13:24:12;5.87;;;3.47;;
12962;SDS011;6546;49.882;8.666;2022-12-07T13:26:41;4.73;;;2.77;;
12962;SDS011;6546;49.882;8.666;2022-12-07T13:29:11;3.47;;;2.63;;
12962;SDS011;6546;49.882;8.666;2022-12-07T13:31:41;4.63;;;2.60;;
12962;SDS011;6546;49.882;8.666;2022-12-07T13:34:29;3.93;;;2.37;;
12962;SDS011;6546;49.882;8.666;2022-12-07T13:37:00;7.43;;;2.70;;
12962;SDS011;6546;49.882;8.666;2022-12-07T13:39:32;5.60;;;2.43;;
12962;SDS011;6546;49.882;8.666;2022-12-07T13:42:08;4.67;;;2.53;;
12962;SDS011;6546;49.882;8.666;2022-12-07T13:44:42;3.87;;;2.90;;
12962;SDS011;6546;49.882;8.666;2022-12-07T13:47:10;4.60;;;2.70;;
12962;SDS011;6546;49.882;8.666;2022-12-07T13:49:46;5.27;;;3.20;;
12962;SDS011;6546;49.882;8.666;2022-12-07T13:52:16;4.27;;;2.67;;
12962;SDS011;6546;49.882;8.666;2022-12-07T13:54:45;4.07;;;3.13;;
12962;SDS011;6546;49.882;8.666;2022-12-07T13:57:13;4.00;;;2.80;;
12962;SDS011;6546;49.882;8.666;2022-12-07T13:59:41;5.93;;;2.70;;
12962;SDS011;6546;49.882;8.666;2022-12-07T14:02:19;5.00;;;2.80;;
12962;SDS011;6546;49.882;8.666;2022-12-07T14:05:05;5.97;;;2.40;;
12962;SDS011;6546;49.882;8.666;2022-12-07T14:07:35;5.20;;;2.33;;
12962;SDS011;6546;49.882;8.666;2022-12-07T14:10:03;5.60;;;2.80;;
12962;SDS011;6546;49.882;8.666;2022-12-07T14:12:32;3.40;;;2.17;;
12962;SDS011;6546;49.882;8.666;2022-12-07T14:15:03;3.37;;;2.33;;
12962;SDS011;6546;49.882;8.666;2022-12-07T14:17:31;3.50;;;2.50;;
12962;SDS011;6546;49.882;8.666;2022-12-07T14:19:58;4.10;;;2.43;;
12962;SDS011;6546;49.882;8.666;2022-12-07T14:22:28;6.50;;;2.90;;
12962;SDS011;6546;49.882;8.666;2022-12-07T14:25:09;5.50;;;2.73;;
12962;SDS011;6546;49.882;8.666;2022-12-07T14:27:47;5.60;;;2.60;;
12962;SDS011;6546;49.882;8.666;2022-12-07T14:30:16;4.40;;;3.03;;
12962;SDS011;6546;49.882;8.666;2022-12-07T14:32:44;6.17;;;2.80;;
12962;SDS011;6546;49.882;8.666;2022-12-07T14:35:15;5.47;;;2.33;;
12962;SDS011;6546;49.882;8.666;2022-12-07T14:37:44;4.73;;;2.87;;
12962;SDS011;6546;49.882;8.666;2022-12-07T14:40:14;5.57;;;3.27;;
12962;SDS011;6546;49.882;8.666;2022-12-07T14:42:42;5.30;;;3.33;;
12962;SDS011;6546;49.882;8.666;2022-12-07T14:45:13;4.70;;;3.10;;
12962;SDS011;6546;49.882;8.666;2022-12-07T14:47:41;6.07;;;2.67;;
12962;SDS011;6546;49.882;8.666;2022-12-07T14:50:10;4.80;;;2.80;;
12962;SDS011;6546;49.882;8.666;2022-12-07T14:52:38;5.67;;;2.83;;
12962;SDS011;6546;49.882;8.666;2022-12-07T14:55:08;6.80;;;3.73;;
12962;SDS011;6546;49.882;8.666;2022-12-07T14:57:43;5.93;;;4.00;;
12962;SDS011;6546;49.882;8.666;2022-12-07T15:00:13;6.43;;;3.30;;
12962;SDS011;6546;49.882;8.666;2022-12-07T15:02:42;6.93;;;3.10;;
12962;SDS011;6546;49.882;8.666;2022-12-07T15:05:09;7.87;;;3.20;;
12962;SDS011;6546;49.882;8.666;2022-12-07T15:07:36;5.10;;;3.07;;
12962;SDS011;6546;49.882;8.666;2022-12-07T15:10:04;5.43;;;3.13;;
12962;SDS011;6546;49.882;8.666;2022-12-07T15:12:34;5.67;;;2.97;;
12962;SDS011;6546;49.882;8.666;2022-12-07T15:15:01;6.37;;;3.23;;
12962;SDS011;6546;49.882;8.666;2022-12-07T15:17:28;5.87;;;2.67;;
12962;SDS011;6546;49.882;8.666;2022-12-07T15:19:55;4.77;;;2.43;;
12962;SDS011;6546;49.882;8.666;2022-12-07T15:22:22;4.30;;;2.50;;
12962;SDS011;6546;49.882;8.666;2022-12-07T15:24:49;3.53;;;2.40;;